EDT,Max TemperatureF,Mean TemperatureF,Min TemperatureF,Max Dew PointF,MeanDew PointF,Min DewpointF,Max Humidity, Mean Humidity, Min Humidity, Max Sea Level PressureIn, Mean Sea Level PressureIn, Min Sea Level PressureIn, Max VisibilityMiles, Mean VisibilityMiles, Min VisibilityMiles, Max Wind SpeedMPH, Mean Wind SpeedMPH, Max Gust SpeedMPH,PrecipitationIn, CloudCover, Events, WindDirDegrees
2013-4-1,44,37,30,37,31,18,93,76,60,30.01,29.91,29.84,10,10,7,20,7,29,0.01,5,Rain,273
2013-4-2,39,32,26,18,9,3,55,40,24,30.15,30.09,30.01,10,10,10,15,5,21,0.00,2,,306
2013-4-3,42,30,19,14,7,0,74,37,16,30.32,30.24,30.15,10,10,10,15,3,23,0.00,0,,325
2013-4-4,37,29,21,28,17,9,100,63,30,30.31,30.19,30.00,10,8,0,9,3,,0.19,3,Snow,67
2013-4-5,51,40,30,34,26,19,100,66,28,30.07,29.98,29.93,10,6,0,13,3,20,0.07,3,Fog,315
2013-4-6,59,42,26,27,22,16,86,49,21,30.24,30.17,30.08,10,10,10,12,2,16,0.00,0,,197
2013-4-7,64,48,32,36,28,19,75,45,28,30.18,30.12,30.04,10,10,10,17,4,23,0.00,1,,218
2013-4-8,71,53,35,41,35,32,87,52,25,30.15,30.10,30.03,10,10,10,14,3,22,0.00,3,Rain,219
2013-4-9,73,58,44,45,40,34,81,49,28,30.20,30.14,30.08,10,10,10,14,3,20,0.00,1,,228
2013-4-10,80,64,48,46,39,34,71,44,21,30.14,30.06,29.96,10,10,10,14,4,23,0.00,0,,225
2013-4-11,75,60,46,50,43,37,81,52,25,29.97,29.88,29.76,10,10,10,13,3,18,0.00,1,,205
2013-4-12,64,54,42,55,42,28,100,65,30,29.91,29.74,29.66,10,9,3,22,9,31,0.70,5,Rain-Thunderstorm,255
2013-4-13,60,50,39,30,25,16,70,44,20,30.04,29.96,29.89,10,10,10,18,5,30,0.00,1,,291
2013-4-14,68,50,33,36,28,19,75,41,23,30.13,30.07,30.03,10,10,10,12,3,22,0.00,1,Rain,212
2013-4-15,53,48,44,45,43,37,93,81,54,30.25,30.16,30.10,10,9,4,9,3,,0.61,8,Rain,113
2013-4-16,71,61,51,50,47,45,88,64,41,30.31,30.24,30.17,10,10,10,8,3,,0.00,4,Thunderstorm,192
2013-4-17,68,60,53,54,51,48,94,75,52,30.29,30.23,30.17,10,10,3,8,3,,0.06,2,Rain-Thunderstorm,230
2013-4-18,71,61,51,52,48,43,88,62,40,30.18,30.12,29.98,10,10,10,18,5,25,0.00,5,,183
2013-4-19,64,52,37,54,46,32,88,72,59,29.96,29.83,29.70,10,10,2,25,9,32,0.41,7,Rain,218
2013-4-20,50,41,32,32,20,12,81,49,24,30.33,30.13,29.94,10,10,10,14,9,23,0.00,2,,308
2013-4-21,51,38,26,25,22,19,80,50,30,30.48,30.42,30.33,10,10,10,9,3,,0.00,0,,106
2013-4-22,53,42,32,25,21,12,69,45,19,30.45,30.37,30.28,10,10,10,9,5,16,0.00,0,,114
2013-4-23,64,47,30,37,30,23,87,54,22,30.30,30.19,30.09,10,10,10,8,3,,0.00,0,,187
2013-4-24,69,52,35,50,40,34,93,65,31,30.17,30.03,29.91,10,10,5,23,4,39,0.05,2,Rain-Thunderstorm,247
2013-4-25,55,42,30,32,23,12,86,52,19,30.34,30.26,30.17,10,10,10,12,5,20,0.00,2,,286
2013-4-26,59,44,28,32,26,21,86,51,23,30.44,30.38,30.33,10,10,10,9,1,,0.00,0,,204
2013-4-27,59,48,37,43,34,30,81,56,36,30.38,30.33,30.26,10,10,10,13,3,,0.00,5,Rain,211
2013-4-28,51,48,44,43,42,37,93,78,62,30.25,30.15,30.06,10,9,5,13,6,21,0.27,8,Rain,162
2013-4-29,60,52,44,46,44,43,93,78,52,30.09,30.05,30.01,10,9,3,13,2,,0.00,7,Rain,340
2013-4-30,68,55,42,50,44,41,100,72,37,30.25,30.14,30.06,10,8,0,12,2,17,0.00,6,Fog,108